createdAt,value
2023-03-02T00:00:48.263Z,79.26
2023-03-02T00:01:50.108Z,78.46
2023-03-02T00:02:52.014Z,78.29
2023-03-02T00:03:54.316Z,78.71
2023-03-02T00:04:57.711Z,77.56
2023-03-02T00:05:59.964Z,77.80
2023-03-02T00:07:04.288Z,78.23
2023-03-02T00:08:06.175Z,77.81
2023-03-02T00:09:08.119Z,77.63
2023-03-02T00:10:10.537Z,77.59
2023-03-02T00:11:12.934Z,77.26
2023-03-02T00:12:16.087Z,76.66
2023-03-02T00:13:17.798Z,76.46
2023-03-02T00:14:19.574Z,76.48
2023-03-02T00:15:21.567Z,76.89
2023-03-02T00:16:23.893Z,77.85
2023-03-02T00:17:28.651Z,77.59
2023-03-02T00:18:30.509Z,78.18
2023-03-02T00:19:32.203Z,77.75
2023-03-02T00:20:35.978Z,77.22
2023-03-02T00:21:37.765Z,77.80
2023-03-02T00:22:40.530Z,77.32
2023-03-02T00:23:42.293Z,77.08
2023-03-02T00:24:44.135Z,77.43
2023-03-02T00:25:45.973Z,76.75
2023-03-02T00:26:47.777Z,77.90
2023-03-02T00:27:49.649Z,77.21
2023-03-02T00:28:51.465Z,77.68
2023-03-02T00:29:53.296Z,77.14
2023-03-02T00:30:55.187Z,78.65
2023-03-02T00:31:57.055Z,78.64
2023-03-02T00:32:58.943Z,79.60
2023-03-02T00:34:00.766Z,79.90
2023-03-02T00:35:02.545Z,79.57
2023-03-02T00:36:04.516Z,80.00
2023-03-02T00:37:06.366Z,79.31
2023-03-02T00:38:08.687Z,80.46
2023-03-02T00:39:10.507Z,80.68
2023-03-02T00:40:12.435Z,80.27
2023-03-02T00:41:15.015Z,79.82
2023-03-02T00:42:16.850Z,79.22
2023-03-02T00:43:18.759Z,79.25
2023-03-02T00:44:20.564Z,78.74
2023-03-02T00:45:22.337Z,78.92
2023-03-02T00:46:24.853Z,79.00
2023-03-02T00:47:26.624Z,79.10
2023-03-02T00:48:28.507Z,79.48
2023-03-02T00:49:30.431Z,80.01
2023-03-02T00:50:32.404Z,79.82
2023-03-02T00:51:34.256Z,80.44
2023-03-02T00:52:36.045Z,79.77
2023-03-02T00:53:38.471Z,80.59
2023-03-02T00:54:40.278Z,81.02
2023-03-02T00:55:42.087Z,80.61
2023-03-02T00:56:43.934Z,81.24
2023-03-02T00:57:55.064Z,80.82
2023-03-02T00:58:56.960Z,79.81
2023-03-02T00:59:58.875Z,79.79
2023-03-02T01:01:05.077Z,79.70
2023-03-02T01:02:07.500Z,79.63
2023-03-02T01:03:09.395Z,80.09
2023-03-02T01:04:11.309Z,80.06
2023-03-02T01:05:13.138Z,78.85
2023-03-02T01:06:16.520Z,79.14
2023-03-02T01:07:18.903Z,80.27
2023-03-02T01:08:20.636Z,79.27
2023-03-02T01:09:22.620Z,79.69
2023-03-02T01:10:24.446Z,79.53
2023-03-02T01:11:26.217Z,79.13
2023-03-02T01:12:27.960Z,79.97
2023-03-02T01:13:29.770Z,80.18
2023-03-02T01:14:32.288Z,80.47
2023-03-02T01:15:34.935Z,80.00
2023-03-02T01:16:37.795Z,80.17
2023-03-02T01:17:41.596Z,79.94
2023-03-02T01:18:43.518Z,81.61
2023-03-02T01:19:45.323Z,81.77
2023-03-02T01:20:47.089Z,81.70
2023-03-02T01:21:48.987Z,80.90
2023-03-02T01:22:50.974Z,80.84
2023-03-02T01:23:52.836Z,80.79
2023-03-02T01:24:54.606Z,80.82
2023-03-02T01:25:56.431Z,80.61
2023-03-02T01:26:58.406Z,81.38
2023-03-02T01:28:00.240Z,80.69
2023-03-02T01:29:02.061Z,80.71
2023-03-02T01:30:04.031Z,80.22
2023-03-02T01:31:05.989Z,80.37
2023-03-02T01:32:07.917Z,80.74
2023-03-02T01:33:09.777Z,80.77
2023-03-02T01:34:11.554Z,80.38
2023-03-02T01:35:13.623Z,81.00
2023-03-02T01:36:15.498Z,79.62
2023-03-02T01:37:17.322Z,80.40
2023-03-02T01:38:19.131Z,80.03
2023-03-02T01:39:22.761Z,80.68
2023-03-02T01:40:26.154Z,80.61
2023-03-02T01:41:28.043Z,80.89
2023-03-02T01:42:34.451Z,80.63
2023-03-02T01:43:36.311Z,81.20
2023-03-02T01:44:43.344Z,81.18
2023-03-02T01:45:47.531Z,80.61
2023-03-02T01:46:49.375Z,80.76
2023-03-02T01:47:51.189Z,81.29
2023-03-02T01:48:56.796Z,81.34
2023-03-02T01:50:17.310Z,81.24
2023-03-02T01:51:21.099Z,81.26
2023-03-02T01:52:26.252Z,80.21
2023-03-02T01:53:29.783Z,80.27
2023-03-02T01:54:31.854Z,80.17
2023-03-02T01:55:34.365Z,79.92
2023-03-02T01:56:38.789Z,79.18
2023-03-02T01:57:46.273Z,79.29
2023-03-02T01:58:51.447Z,80.00
2023-03-02T01:59:57.019Z,80.86
2023-03-02T02:00:58.954Z,80.49
2023-03-02T02:02:02.095Z,81.13
2023-03-02T02:03:09.421Z,80.47
2023-03-02T02:04:11.692Z,80.39
2023-03-02T02:05:19.305Z,81.05
2023-03-02T02:06:25.224Z,80.77
2023-03-02T02:07:28.793Z,81.42
2023-03-02T02:08:30.724Z,80.92
2023-03-02T02:09:34.947Z,81.00
2023-03-02T02:10:37.282Z,80.18
2023-03-02T02:11:39.259Z,80.64
2023-03-02T02:12:41.029Z,81.09
2023-03-02T02:13:42.875Z,80.38
2023-03-02T02:14:45.726Z,79.97
2023-03-02T02:15:47.518Z,79.80
2023-03-02T02:16:49.334Z,80.33
2023-03-02T02:17:52.290Z,80.20
2023-03-02T02:18:54.174Z,79.64
2023-03-02T02:20:07.961Z,79.26
2023-03-02T02:21:09.863Z,79.04
2023-03-02T02:22:12.342Z,79.33
2023-03-02T02:23:17.246Z,79.11
2023-03-02T02:24:26.020Z,79.51
2023-03-02T02:25:39.965Z,79.14
2023-03-02T02:26:47.243Z,79.37
2023-03-02T02:27:48.994Z,79.26
2023-03-02T02:28:58.122Z,79.97
2023-03-02T02:30:01.896Z,79.88
2023-03-02T02:31:18.434Z,80.02
2023-03-02T02:32:24.528Z,79.71
2023-03-02T02:33:26.901Z,80.32
2023-03-02T02:34:33.789Z,80.08
2023-03-02T02:35:38.869Z,79.66
2023-03-02T02:36:42.749Z,79.08
2023-03-02T02:37:59.588Z,79.45
2023-03-02T02:39:04.018Z,79.16
2023-03-02T02:40:07.695Z,80.06
2023-03-02T02:41:13.432Z,79.63
2023-03-02T02:42:17.820Z,80.19
2023-03-02T02:43:21.722Z,79.97
2023-03-02T02:44:23.531Z,80.55
2023-03-02T02:45:26.280Z,80.82
2023-03-02T02:46:28.205Z,80.38
2023-03-02T02:47:30.143Z,79.78
2023-03-02T02:48:32.769Z,80.35
2023-03-02T02:49:35.924Z,79.69
2023-03-02T02:50:38.458Z,79.91
2023-03-02T02:51:40.246Z,81.28
2023-03-02T02:52:42.119Z,80.95
2023-03-02T02:54:00.838Z,80.79
2023-03-02T02:55:03.173Z,81.22
2023-03-02T02:56:06.937Z,80.50
2023-03-02T02:57:11.507Z,81.28
2023-03-02T02:58:25.326Z,80.51
2023-03-02T02:59:29.344Z,81.23
2023-03-02T03:00:31.180Z,80.66
2023-03-02T03:01:33.883Z,80.41
2023-03-02T03:02:42.159Z,80.65
2023-03-02T03:03:46.324Z,80.57
2023-03-02T03:04:48.203Z,80.53
2023-03-02T03:05:49.989Z,81.11
2023-03-02T03:06:51.899Z,81.46
2023-03-02T03:07:53.752Z,80.42
2023-03-02T03:08:57.348Z,80.85
2023-03-02T03:10:05.453Z,80.52
2023-03-02T03:11:08.296Z,79.71
2023-03-02T03:12:17.820Z,80.38
2023-03-02T03:13:19.651Z,80.14
2023-03-02T03:14:25.390Z,79.95
2023-03-02T03:15:27.221Z,79.30
2023-03-02T03:16:30.700Z,79.74
2023-03-02T03:17:32.893Z,80.83
2023-03-02T03:18:34.681Z,80.03
2023-03-02T03:19:36.611Z,79.92
2023-03-02T03:20:38.332Z,79.53
2023-03-02T03:21:40.179Z,79.78
2023-03-02T03:22:42.053Z,79.69
2023-03-02T03:23:43.987Z,79.09
2023-03-02T03:24:46.078Z,79.24
2023-03-02T03:25:47.853Z,80.19
2023-03-02T03:26:50.025Z,79.45
2023-03-02T03:27:51.889Z,80.79
2023-03-02T03:28:53.745Z,80.83
2023-03-02T03:29:55.633Z,80.89
2023-03-02T03:30:57.497Z,80.00
2023-03-02T03:32:00.132Z,80.14
2023-03-02T03:33:02.203Z,80.13
2023-03-02T03:34:04.046Z,80.08
2023-03-02T03:35:08.916Z,80.64
2023-03-02T03:36:10.744Z,80.57
2023-03-02T03:37:14.313Z,80.46
2023-03-02T03:38:16.858Z,80.18
2023-03-02T03:39:18.720Z,80.92
2023-03-02T03:40:20.619Z,80.00
2023-03-02T03:41:22.396Z,80.76
2023-03-02T03:42:24.436Z,80.54
2023-03-02T03:43:26.301Z,80.89
2023-03-02T03:44:28.691Z,81.77
2023-03-02T03:45:31.241Z,81.42
2023-03-02T03:46:33.802Z,80.77
2023-03-02T03:47:36.542Z,81.27
2023-03-02T03:48:38.458Z,81.01
2023-03-02T03:49:40.186Z,81.11
2023-03-02T03:50:41.984Z,81.98
2023-03-02T03:51:43.839Z,81.28
2023-03-02T03:52:45.702Z,81.62
2023-03-02T03:54:00.179Z,81.84
2023-03-02T03:55:02.517Z,80.97
2023-03-02T03:56:04.936Z,81.04
2023-03-02T03:57:06.669Z,81.08
2023-03-02T03:58:08.471Z,81.85
2023-03-02T03:59:12.582Z,81.50
2023-03-02T04:00:17.905Z,82.14
2023-03-02T04:01:19.776Z,81.41
2023-03-02T04:02:22.437Z,81.79
2023-03-02T04:03:24.373Z,81.03
2023-03-02T04:04:31.353Z,80.92
2023-03-02T04:05:33.231Z,80.54
2023-03-02T04:06:35.394Z,80.76
2023-03-02T04:07:37.871Z,81.17
2023-03-02T04:08:40.274Z,80.89
2023-03-02T04:09:42.335Z,80.68
2023-03-02T04:10:44.261Z,81.50
2023-03-02T04:11:47.547Z,81.64
2023-03-02T04:12:49.327Z,81.47
2023-03-02T04:13:51.094Z,80.92
2023-03-02T04:14:52.922Z,80.97
2023-03-02T04:15:54.751Z,81.09
2023-03-02T04:16:56.677Z,80.92
2023-03-02T04:17:58.516Z,80.91
2023-03-02T04:19:00.927Z,80.06
2023-03-02T04:20:02.897Z,80.68
2023-03-02T04:21:04.784Z,80.83
2023-03-02T04:22:06.534Z,81.66
2023-03-02T04:23:08.404Z,81.42
2023-03-02T04:24:10.332Z,80.95
2023-03-02T04:25:13.230Z,80.21
2023-03-02T04:26:15.033Z,80.45
2023-03-02T04:27:17.324Z,80.77
2023-03-02T04:28:19.188Z,79.95
2023-03-02T04:29:21.089Z,79.73
2023-03-02T04:30:24.507Z,79.96
2023-03-02T04:31:26.423Z,81.03
2023-03-02T04:32:28.280Z,81.18
2023-03-02T04:33:30.068Z,81.34
2023-03-02T04:34:32.361Z,81.31
2023-03-02T04:35:34.569Z,81.18
2023-03-02T04:36:38.036Z,81.48
2023-03-02T04:37:40.917Z,81.58
2023-03-02T04:38:42.894Z,81.52
2023-03-02T04:39:47.571Z,80.93
2023-03-02T04:40:49.325Z,81.86
2023-03-02T04:41:51.211Z,81.06
2023-03-02T04:42:53.051Z,81.61
2023-03-02T04:43:54.969Z,81.49
2023-03-02T04:44:56.756Z,81.75
2023-03-02T04:45:58.844Z,81.38
2023-03-02T04:47:00.629Z,81.43
2023-03-02T04:48:02.412Z,82.33
2023-03-02T04:49:04.673Z,82.06
2023-03-02T04:50:06.865Z,82.79
2023-03-02T04:51:13.337Z,82.85
2023-03-02T04:52:15.065Z,82.64
2023-03-02T04:53:17.068Z,82.54
2023-03-02T04:54:24.172Z,82.24
2023-03-02T04:55:26.939Z,81.43
2023-03-02T04:56:29.133Z,81.57
2023-03-02T04:57:31.036Z,82.53
2023-03-02T04:58:32.804Z,82.72
2023-03-02T04:59:35.138Z,82.82
2023-03-02T05:00:37.129Z,82.05
2023-03-02T05:01:38.979Z,82.41
2023-03-02T05:02:41.607Z,82.26
2023-03-02T05:03:43.528Z,81.73
2023-03-02T05:04:45.425Z,82.37
2023-03-02T05:05:47.205Z,82.27
2023-03-02T05:06:49.009Z,82.29
2023-03-02T05:07:51.232Z,81.42
2023-03-02T05:08:53.588Z,81.92
2023-03-02T05:09:55.497Z,81.58
2023-03-02T05:10:58.495Z,81.26
2023-03-02T05:12:00.750Z,80.66
2023-03-02T05:13:03.012Z,80.58
2023-03-02T05:14:05.933Z,81.04
2023-03-02T05:15:07.932Z,80.68
2023-03-02T05:16:09.737Z,81.29
2023-03-02T05:17:11.536Z,81.00
2023-03-02T05:18:13.630Z,80.64
2023-03-02T05:19:15.506Z,81.39
2023-03-02T05:20:17.655Z,81.02
2023-03-02T05:21:19.423Z,81.12
2023-03-02T05:22:21.202Z,81.15
2023-03-02T05:23:27.312Z,81.11
2023-03-02T05:24:29.149Z,80.10
2023-03-02T05:25:31.868Z,80.74
2023-03-02T05:26:34.012Z,80.77
2023-03-02T05:27:37.110Z,81.89
2023-03-02T05:28:39.005Z,81.67
2023-03-02T05:29:40.869Z,81.71
2023-03-02T05:30:42.770Z,82.76
2023-03-02T05:31:45.183Z,82.54
2023-03-02T05:32:47.354Z,82.36
2023-03-02T05:33:49.134Z,82.64
2023-03-02T05:34:50.853Z,82.51
2023-03-02T05:35:52.679Z,82.34
2023-03-02T05:36:54.520Z,82.68
2023-03-02T05:37:56.335Z,83.04
2023-03-02T05:38:58.593Z,82.81
2023-03-02T05:40:00.463Z,82.29
2023-03-02T05:41:02.254Z,82.46
2023-03-02T05:42:04.134Z,82.37
2023-03-02T05:43:05.895Z,82.20
2023-03-02T05:44:10.304Z,82.10
2023-03-02T05:45:21.705Z,81.66
2023-03-02T05:46:23.873Z,81.56
2023-03-02T05:47:25.696Z,81.03
2023-03-02T05:48:28.275Z,81.39
2023-03-02T05:49:30.164Z,80.43
2023-03-02T05:50:31.990Z,80.55
2023-03-02T05:51:33.793Z,81.72
2023-03-02T05:52:35.565Z,81.78
2023-03-02T05:53:37.337Z,81.18
2023-03-02T05:54:39.144Z,82.01
2023-03-02T05:55:40.955Z,82.22
2023-03-02T05:56:42.743Z,81.28
2023-03-02T05:57:45.263Z,81.75
2023-03-02T05:58:47.026Z,81.92
2023-03-02T05:59:51.191Z,81.79
2023-03-02T06:00:52.972Z,80.97
2023-03-02T06:01:59.083Z,81.39
2023-03-02T06:03:01.082Z,81.29
2023-03-02T06:04:03.057Z,81.52
2023-03-02T06:05:08.467Z,82.25
2023-03-02T06:06:14.518Z,82.38
2023-03-02T06:07:16.472Z,82.22
2023-03-02T06:08:19.229Z,82.36
2023-03-02T06:09:21.142Z,82.58
2023-03-02T06:10:23.377Z,81.90
2023-03-02T06:11:25.157Z,82.22
2023-03-02T06:12:27.039Z,82.21
2023-03-02T06:13:28.932Z,81.77
2023-03-02T06:14:30.726Z,82.05
2023-03-02T06:15:32.527Z,81.58
2023-03-02T06:16:34.649Z,81.78
2023-03-02T06:17:36.643Z,81.09
2023-03-02T06:18:41.289Z,81.60
2023-03-02T06:19:43.263Z,81.09
2023-03-02T06:20:45.393Z,81.28
2023-03-02T06:21:47.214Z,81.17
2023-03-02T06:22:49.080Z,80.82
2023-03-02T06:23:50.867Z,82.08
2023-03-02T06:24:55.391Z,81.83
2023-03-02T06:25:58.401Z,81.44
2023-03-02T06:27:00.496Z,81.29
2023-03-02T06:28:02.256Z,81.83
2023-03-02T06:29:05.612Z,81.64
2023-03-02T06:30:08.800Z,80.84
2023-03-02T06:31:10.643Z,81.09
2023-03-02T06:32:12.535Z,81.17
2023-03-02T06:33:15.940Z,81.67
2023-03-02T06:34:17.819Z,81.40
2023-03-02T06:35:19.776Z,81.17
2023-03-02T06:36:21.784Z,81.75
2023-03-02T06:37:23.646Z,81.30
2023-03-02T06:38:25.526Z,81.81
2023-03-02T06:39:27.371Z,80.83
2023-03-02T06:40:31.307Z,80.91
2023-03-02T06:41:36.639Z,81.77
2023-03-02T06:42:38.943Z,81.05
2023-03-02T06:43:40.760Z,81.58
2023-03-02T06:44:42.472Z,80.96
2023-03-02T06:45:44.328Z,81.36
2023-03-02T06:46:46.123Z,81.75
2023-03-02T06:47:47.985Z,80.99
2023-03-02T06:48:49.724Z,81.63
2023-03-02T06:49:51.491Z,82.03
2023-03-02T06:50:53.288Z,81.65
2023-03-02T06:51:55.083Z,81.52
2023-03-02T06:52:56.964Z,81.81
2023-03-02T06:53:58.862Z,81.10
2023-03-02T06:55:00.887Z,82.35
2023-03-02T06:56:02.699Z,81.65
2023-03-02T06:57:04.684Z,81.50
2023-03-02T06:58:06.604Z,81.24
2023-03-02T06:59:08.568Z,81.82
2023-03-02T07:00:15.668Z,81.93
2023-03-02T07:01:17.598Z,80.68
2023-03-02T07:02:19.493Z,80.68
2023-03-02T07:03:21.334Z,81.07
2023-03-02T07:04:23.219Z,80.83
2023-03-02T07:05:25.223Z,80.83
2023-03-02T07:06:27.012Z,80.30
2023-03-02T07:07:28.847Z,80.30
2023-03-02T07:08:30.741Z,80.81
2023-03-02T07:09:33.437Z,79.89
2023-03-02T07:10:35.296Z,80.69
2023-03-02T07:11:37.140Z,80.69
2023-03-02T07:12:39.283Z,80.73
2023-03-02T07:13:41.326Z,81.34
2023-03-02T07:14:43.147Z,81.36
2023-03-02T07:15:45.036Z,80.87
2023-03-02T07:16:46.948Z,81.78
2023-03-02T07:17:48.932Z,80.91
2023-03-02T07:18:50.734Z,81.59
2023-03-02T07:19:52.554Z,81.44
2023-03-02T07:20:54.318Z,81.89
2023-03-02T07:21:56.096Z,81.92
2023-03-02T07:22:58.154Z,82.02
2023-03-02T07:23:59.970Z,81.75
2023-03-02T07:25:01.908Z,80.78
2023-03-02T07:26:08.740Z,81.21
2023-03-02T07:27:10.602Z,80.96
2023-03-02T07:28:12.407Z,81.75
2023-03-02T07:29:14.270Z,82.61
2023-03-02T07:30:16.176Z,82.39
2023-03-02T07:31:18.223Z,82.82
2023-03-02T07:32:20.156Z,82.99
2023-03-02T07:33:22.546Z,83.63
2023-03-02T07:34:25.354Z,82.88
2023-03-02T07:35:27.245Z,83.00
2023-03-02T07:36:29.200Z,83.16
2023-03-02T07:37:31.014Z,83.00
2023-03-02T07:38:32.926Z,83.11
2023-03-02T07:39:34.782Z,82.88
2023-03-02T07:40:40.094Z,82.44
2023-03-02T07:41:41.913Z,82.43
2023-03-02T07:42:43.722Z,82.39
2023-03-02T07:43:45.524Z,82.23
2023-03-02T07:44:47.505Z,82.89
2023-03-02T07:45:49.266Z,83.08
2023-03-02T07:46:51.154Z,83.30
2023-03-02T07:47:53.059Z,82.70
2023-03-02T07:48:54.865Z,83.05
2023-03-02T07:49:56.843Z,83.54
2023-03-02T07:51:02.482Z,83.63
2023-03-02T07:52:04.568Z,83.11
2023-03-02T07:53:06.369Z,83.99
2023-03-02T07:54:08.361Z,83.70
2023-03-02T07:55:10.580Z,83.79
2023-03-02T07:56:12.499Z,83.72
2023-03-02T07:57:16.475Z,84.45
2023-03-02T07:58:18.355Z,83.52
2023-03-02T07:59:20.181Z,84.32
2023-03-02T08:00:22.179Z,84.90
2023-03-02T08:01:24.184Z,84.95
2023-03-02T08:02:26.131Z,85.14
2023-03-02T08:03:27.915Z,86.08
2023-03-02T08:04:29.736Z,86.04
2023-03-02T08:05:31.592Z,85.79
2023-03-02T08:06:33.387Z,85.27
2023-03-02T08:07:35.371Z,85.18
2023-03-02T08:08:37.474Z,84.24
2023-03-02T08:09:39.984Z,84.34
2023-03-02T08:10:42.229Z,84.40
2023-03-02T08:11:45.113Z,83.43
2023-03-02T08:12:46.992Z,83.10
2023-03-02T08:13:48.887Z,83.18
2023-03-02T08:14:50.734Z,83.84
2023-03-02T08:15:59.343Z,83.90
2023-03-02T08:17:01.321Z,83.36
2023-03-02T10:28:22.044Z,62.74
2023-03-02T10:29:23.851Z,61.78
2023-03-02T10:30:34.241Z,61.29
2023-03-02T10:31:40.155Z,61.52
2023-03-02T10:32:52.242Z,59.73
2023-03-02T10:33:54.167Z,58.51
2023-03-02T10:34:56.162Z,59.48
2023-03-02T10:36:01.304Z,59.98
2023-03-02T10:37:03.318Z,60.12
2023-03-02T10:38:12.694Z,60.33
2023-03-02T10:39:16.076Z,57.35
2023-03-02T10:40:29.868Z,58.38
2023-03-02T10:41:33.484Z,58.27
2023-03-02T10:42:43.151Z,55.07
2023-03-02T10:43:53.064Z,54.40
2023-03-02T10:45:22.154Z,54.75
2023-03-02T10:46:24.197Z,51.61
2023-03-02T10:47:27.805Z,52.46
2023-03-02T10:48:29.832Z,53.04
2023-03-02T10:49:36.518Z,53.05
2023-03-02T10:50:39.020Z,52.55
2023-03-02T10:51:42.934Z,54.53
2023-03-02T10:52:59.756Z,52.68
2023-03-02T10:54:05.566Z,54.45
2023-03-02T10:55:14.769Z,51.21
2023-03-02T10:56:21.068Z,51.40
2023-03-02T10:57:25.740Z,52.56
2023-03-02T10:58:32.296Z,51.58
2023-03-02T10:59:47.285Z,52.17
2023-03-02T11:00:56.395Z,51.96
2023-03-02T11:02:18.731Z,49.97
2023-03-02T11:03:21.534Z,50.52
2023-03-02T11:04:23.472Z,50.42
2023-03-02T11:05:30.743Z,51.05
2023-03-02T11:06:33.883Z,49.26
2023-03-02T11:07:36.355Z,48.99
2023-03-02T11:08:38.265Z,49.52
2023-03-02T11:09:40.221Z,48.29
2023-03-02T11:10:52.305Z,48.71
2023-03-02T11:11:55.722Z,49.36
2023-03-02T11:12:58.556Z,48.80
2023-03-02T11:14:14.840Z,47.32
2023-03-02T11:15:19.299Z,48.42
2023-03-02T11:16:29.061Z,45.72
2023-03-02T11:17:33.270Z,45.81
2023-03-02T11:18:38.009Z,45.65
2023-03-02T11:19:41.632Z,44.82
2023-03-02T11:20:45.979Z,46.08
2023-03-02T11:21:51.960Z,46.73
2023-03-02T11:22:56.867Z,45.97
2023-03-02T11:24:05.067Z,47.26
2023-03-02T11:25:08.646Z,44.40
2023-03-02T11:26:21.743Z,45.43
2023-03-02T11:27:31.854Z,44.05
2023-03-02T11:28:41.149Z,42.84
2023-03-02T11:29:42.996Z,43.95
2023-03-02T11:30:48.462Z,43.44
2023-03-02T11:31:55.840Z,43.03
2023-03-02T11:33:04.522Z,41.25
2023-03-02T11:34:17.301Z,40.32
2023-03-02T11:35:23.061Z,41.87
2023-03-02T11:36:30.929Z,42.34
2023-03-02T11:37:35.753Z,41.49
2023-03-02T11:38:43.499Z,42.22
2023-03-02T11:39:54.984Z,42.10
2023-03-02T11:41:00.803Z,41.12
2023-03-02T11:42:02.804Z,42.59
2023-03-02T11:43:07.790Z,43.04
2023-03-02T11:44:14.595Z,42.10
2023-03-02T11:45:22.471Z,41.06
2023-03-02T11:46:30.874Z,41.40
2023-03-02T11:47:33.258Z,42.30
2023-03-02T11:48:35.230Z,41.48
2023-03-02T11:49:40.377Z,43.08
2023-03-02T11:51:02.556Z,42.83
2023-03-02T11:52:04.702Z,43.74
2023-03-02T11:53:10.681Z,42.81
2023-03-02T11:54:29.883Z,42.64
2023-03-02T11:55:34.470Z,42.39
2023-03-02T11:56:38.719Z,43.09
2023-03-02T11:57:48.693Z,43.25
2023-03-02T11:58:54.404Z,40.59
2023-03-02T11:59:57.175Z,43.01
2023-03-02T12:00:59.929Z,43.84
2023-03-02T12:02:02.457Z,39.41
2023-03-02T12:03:06.180Z,38.67
2023-03-02T12:04:12.074Z,39.92
2023-03-02T12:05:25.382Z,40.20
2023-03-02T12:06:28.997Z,41.91
2023-03-02T12:07:31.510Z,41.73
2023-03-02T12:08:33.271Z,41.34
2023-03-02T12:09:37.660Z,40.83
2023-03-02T12:10:41.113Z,41.17
2023-03-02T12:11:45.600Z,39.65
2023-03-02T12:12:48.484Z,39.47
2023-03-02T12:14:00.506Z,38.41
2023-03-02T12:15:02.394Z,38.61
2023-03-02T12:16:24.458Z,41.88
2023-03-02T12:17:26.328Z,40.75
2023-03-02T12:18:29.826Z,41.46
2023-03-02T12:19:42.186Z,42.80
2023-03-02T12:20:44.019Z,41.15
2023-03-02T12:21:59.175Z,41.43
2023-03-02T12:23:08.737Z,40.94
2023-03-02T12:24:32.452Z,40.55
2023-03-02T12:25:40.057Z,41.06
2023-03-02T12:26:42.077Z,38.85
2023-03-02T12:27:44.248Z,40.91
2023-03-02T12:29:15.426Z,41.37
2023-03-02T12:30:18.694Z,38.56
2023-03-02T12:31:20.651Z,40.52
2023-03-02T12:32:27.276Z,38.81
2023-03-02T12:33:29.186Z,39.87
2023-03-02T12:34:34.797Z,40.12
2023-03-02T12:35:37.281Z,39.10
2023-03-02T12:36:43.508Z,41.20
2023-03-02T12:37:47.792Z,40.41
2023-03-02T12:39:12.940Z,40.48
2023-03-02T12:40:27.119Z,38.75
2023-03-02T12:41:39.364Z,38.46
2023-03-02T12:42:59.849Z,39.32
2023-03-02T12:44:07.567Z,38.80
2023-03-02T12:45:28.196Z,39.52
2023-03-02T12:46:32.133Z,39.16
2023-03-02T12:47:34.395Z,40.95
2023-03-02T12:48:49.183Z,39.67
2023-03-02T12:49:57.096Z,39.68
2023-03-02T12:51:01.007Z,39.58
2023-03-02T12:52:04.493Z,39.77
2023-03-02T12:53:07.622Z,41.36
2023-03-02T12:54:35.923Z,40.60
2023-03-02T12:55:38.715Z,37.69
2023-03-02T12:56:44.518Z,36.14
2023-03-02T12:57:50.658Z,38.09
2023-03-02T12:58:53.513Z,38.08
2023-03-02T13:00:00.926Z,39.74
2023-03-02T13:01:03.461Z,40.95
2023-03-02T13:02:16.116Z,41.47
2023-03-02T13:03:18.915Z,41.57
2023-03-02T13:04:25.441Z,40.16
2023-03-02T13:05:29.180Z,39.82
2023-03-02T13:06:32.305Z,41.93
2023-03-02T13:07:41.453Z,41.81
2023-03-02T13:08:44.900Z,41.81
2023-03-02T13:09:57.311Z,42.63
2023-03-02T13:11:01.638Z,43.11
2023-03-02T13:12:03.663Z,43.18
2023-03-02T13:13:22.901Z,43.50
2023-03-02T13:14:28.770Z,43.58
2023-03-02T13:15:30.694Z,43.38
2023-03-02T13:16:34.038Z,44.15
2023-03-02T13:17:36.190Z,44.01
2023-03-02T13:18:39.914Z,43.43
2023-03-02T13:19:41.742Z,43.36
2023-03-02T13:20:43.861Z,43.95
2023-03-02T13:21:45.822Z,43.40
2023-03-02T13:22:47.961Z,43.13
2023-03-02T13:23:52.180Z,43.42
2023-03-02T13:25:05.653Z,44.18
2023-03-02T13:26:07.631Z,44.53
2023-03-02T13:27:23.234Z,45.21
2023-03-02T13:28:27.820Z,45.80
2023-03-02T13:29:32.119Z,45.54
2023-03-02T13:30:35.420Z,45.82
2023-03-02T13:31:37.460Z,45.63
2023-03-02T13:32:40.628Z,45.46
2023-03-02T13:33:44.935Z,45.93
2023-03-02T13:34:51.371Z,45.87
2023-03-02T13:35:53.406Z,46.52
2023-03-02T13:36:55.374Z,45.69
2023-03-02T13:38:01.953Z,45.21
2023-03-02T13:39:07.361Z,46.61
2023-03-02T13:40:25.353Z,46.99
2023-03-02T13:41:29.220Z,46.09
2023-03-02T13:42:38.971Z,45.65
2023-03-02T13:43:40.904Z,45.46
2023-03-02T13:44:43.493Z,46.34
2023-03-02T13:45:55.781Z,45.60
2023-03-02T13:46:58.440Z,46.52
2023-03-02T13:48:01.522Z,45.14
2023-03-02T13:49:10.176Z,45.52
2023-03-02T13:50:20.556Z,45.95
2023-03-02T13:51:24.937Z,45.56
2023-03-02T13:52:28.413Z,45.81
2023-03-02T13:53:31.871Z,44.50
2023-03-02T13:54:35.356Z,43.83
2023-03-02T13:55:37.426Z,43.43
2023-03-02T13:56:44.226Z,43.05
2023-03-02T13:57:46.484Z,42.88
2023-03-02T13:58:48.383Z,43.02
2023-03-02T13:59:50.338Z,42.80
2023-03-02T14:00:52.719Z,42.90
2023-03-02T14:01:54.689Z,44.05
2023-03-02T14:02:56.669Z,42.53
2023-03-02T14:04:00.675Z,42.32
2023-03-02T14:05:02.665Z,44.15
2023-03-02T14:06:06.331Z,42.57
2023-03-02T14:07:08.216Z,42.70
2023-03-02T14:08:10.244Z,43.07
2023-03-02T14:09:12.165Z,42.27
2023-03-02T14:10:18.273Z,42.22
2023-03-02T14:11:20.235Z,42.27
2023-03-02T14:12:27.594Z,43.92
2023-03-02T14:13:35.780Z,44.14
2023-03-02T14:14:40.106Z,43.82
2023-03-02T14:15:43.621Z,43.84
2023-03-02T14:16:45.618Z,43.04
2023-03-02T14:17:49.464Z,43.14
2023-03-02T14:18:53.202Z,43.19
2023-03-02T14:19:55.845Z,43.60
2023-03-02T14:20:58.414Z,43.29
2023-03-02T14:22:00.504Z,42.88
2023-03-02T14:23:06.854Z,43.35
2023-03-02T14:24:09.535Z,43.80
2023-03-02T14:25:11.518Z,42.48
2023-03-02T14:26:32.324Z,43.58
2023-03-02T14:27:34.438Z,41.87
2023-03-02T14:28:36.453Z,40.51
2023-03-02T14:29:39.814Z,40.46
2023-03-02T14:30:44.211Z,40.29
2023-03-02T14:31:46.089Z,39.26
2023-03-02T14:32:48.361Z,39.75
2023-03-02T14:33:51.241Z,38.64
2023-03-02T14:34:53.120Z,39.05
2023-03-02T14:35:57.095Z,39.45
2023-03-02T14:36:59.866Z,39.20
2023-03-02T14:38:01.831Z,39.52
2023-03-02T14:39:05.335Z,39.46
2023-03-02T14:40:14.628Z,38.92
2023-03-02T14:41:22.236Z,38.74
2023-03-02T14:42:24.494Z,39.41
2023-03-02T14:43:26.499Z,39.04
2023-03-02T14:44:28.409Z,40.10
2023-03-02T14:45:30.929Z,38.86
2023-03-02T14:46:32.929Z,39.75
2023-03-02T14:47:34.895Z,40.02
2023-03-02T14:48:36.936Z,39.91
2023-03-02T14:49:38.948Z,41.39
2023-03-02T14:50:42.607Z,40.44
2023-03-02T14:51:45.678Z,40.83
2023-03-02T14:52:49.921Z,42.00
2023-03-02T14:53:53.258Z,41.10
2023-03-02T14:54:58.216Z,41.24
2023-03-02T14:56:00.416Z,41.41
2023-03-02T14:57:02.615Z,43.30
2023-03-02T14:58:06.295Z,43.06
2023-03-02T14:59:09.679Z,42.23
2023-03-02T15:00:15.728Z,42.51
2023-03-02T15:01:18.076Z,40.97
2023-03-02T15:02:25.696Z,42.83
2023-03-02T15:03:29.702Z,42.65
2023-03-02T15:04:31.670Z,42.41
2023-03-02T15:05:33.585Z,42.70
2023-03-02T15:06:37.711Z,43.00
2023-03-02T15:07:39.761Z,41.43
2023-03-02T15:08:41.622Z,41.45
2023-03-02T15:09:44.150Z,42.34
2023-03-02T15:10:47.265Z,43.04
2023-03-02T15:11:49.248Z,41.46
2023-03-02T15:12:51.441Z,42.37
2023-03-02T15:13:53.815Z,42.53
2023-03-02T15:14:55.819Z,43.54
2023-03-02T15:15:57.693Z,41.83
2023-03-02T15:16:59.573Z,43.27
2023-03-02T15:18:01.537Z,42.76
2023-03-02T15:19:03.462Z,43.56
2023-03-02T15:20:06.551Z,43.65
2023-03-02T15:21:12.988Z,44.77
2023-03-02T15:22:14.955Z,44.27
2023-03-02T15:23:16.870Z,44.96
2023-03-02T15:24:22.434Z,43.61
2023-03-02T15:25:26.253Z,43.58
2023-03-02T15:26:28.096Z,44.10
2023-03-02T15:27:29.889Z,44.99
2023-03-02T15:28:31.834Z,44.71
2023-03-02T15:29:33.768Z,45.19
2023-03-02T15:30:35.714Z,44.93
2023-03-02T15:31:37.600Z,44.64
2023-03-02T15:32:39.719Z,45.32
2023-03-02T15:33:42.144Z,44.87
2023-03-02T15:34:44.313Z,45.67
2023-03-02T15:35:46.496Z,45.53
2023-03-02T15:36:48.401Z,45.83
2023-03-02T15:37:50.297Z,45.85
2023-03-02T15:38:52.654Z,45.51
2023-03-02T15:39:55.605Z,45.69
2023-03-02T15:40:57.479Z,45.74
2023-03-02T15:41:59.341Z,45.39
2023-03-02T15:43:01.230Z,45.83
2023-03-02T15:44:03.125Z,46.25
2023-03-02T15:45:05.828Z,46.66
2023-03-02T15:46:09.768Z,46.62
2023-03-02T15:47:11.701Z,47.79
2023-03-02T15:48:14.391Z,48.34
2023-03-02T15:49:16.503Z,48.34
2023-03-02T15:50:18.575Z,48.47
2023-03-02T15:51:20.857Z,49.00
2023-03-02T15:52:22.789Z,49.51